createdAt,value
2022-08-24T00:00:35.120Z,99.90
2022-08-24T00:02:37.147Z,99.90
2022-08-24T00:04:39.184Z,99.90
2022-08-24T00:06:40.946Z,99.90
2022-08-24T00:08:43.488Z,99.90
2022-08-24T00:10:45.841Z,99.90
2022-08-24T00:12:48.444Z,99.90
2022-08-24T00:14:50.712Z,99.90
2022-08-24T00:16:52.661Z,99.90
2022-08-24T00:18:56.075Z,99.90
2022-08-24T00:20:57.910Z,99.90
2022-08-24T00:22:59.671Z,99.90
2022-08-24T00:25:01.629Z,99.90
2022-08-24T00:27:03.867Z,99.90
2022-08-24T00:29:07.700Z,99.90
2022-08-24T00:31:10.414Z,99.90
2022-08-24T00:33:12.195Z,99.90
2022-08-24T00:35:18.264Z,99.90
2022-08-24T00:37:20.050Z,99.90
2022-08-24T00:39:22.112Z,99.90
2022-08-24T00:41:24.548Z,99.90
2022-08-24T00:43:26.667Z,99.90
2022-08-24T00:45:29.544Z,99.90
2022-08-24T00:47:40.957Z,99.90
2022-08-24T00:50:06.152Z,99.90
2022-08-24T00:52:14.256Z,99.90
2022-08-24T00:54:18.583Z,99.90
2022-08-24T00:56:26.767Z,99.90
2022-08-24T00:58:39.063Z,99.90
2022-08-24T01:00:46.587Z,99.90
2022-08-24T01:02:55.833Z,99.90
2022-08-24T01:05:01.819Z,99.90
2022-08-24T01:07:04.382Z,99.90
2022-08-24T01:09:06.775Z,99.90
2022-08-24T01:11:12.619Z,99.90
2022-08-24T01:13:15.438Z,99.90
2022-08-24T01:15:17.407Z,99.90
2022-08-24T01:17:40.555Z,99.90
2022-08-24T01:19:47.696Z,99.90
2022-08-24T01:22:12.952Z,99.90
2022-08-24T01:24:15.404Z,99.90
2022-08-24T01:26:36.272Z,99.90
2022-08-24T01:28:42.268Z,99.90
2022-08-24T01:30:45.378Z,99.90
2022-08-24T01:32:58.936Z,99.90
2022-08-24T01:35:00.859Z,99.90
2022-08-24T01:37:03.272Z,99.90
2022-08-24T01:39:21.637Z,99.90
2022-08-24T01:41:28.264Z,99.90
2022-08-24T01:43:31.025Z,99.90
2022-08-24T01:45:36.323Z,99.90
2022-08-24T01:47:38.084Z,99.90
2022-08-24T01:49:43.580Z,99.90
2022-08-24T01:51:46.363Z,99.90
2022-08-24T01:53:48.465Z,99.90
2022-08-24T01:55:50.303Z,99.90
2022-08-24T01:57:52.056Z,99.90
2022-08-24T01:59:53.927Z,99.90
2022-08-24T02:02:04.318Z,99.90
2022-08-24T02:04:08.712Z,99.90
2022-08-24T02:06:12.288Z,99.90
2022-08-24T02:08:14.439Z,99.90
2022-08-24T02:10:17.167Z,99.90
2022-08-24T02:12:19.764Z,99.90
2022-08-24T02:14:21.938Z,99.90
2022-08-24T02:16:24.181Z,99.90
2022-08-24T02:18:26.027Z,99.90
2022-08-24T02:20:28.531Z,99.90
2022-08-24T02:22:30.332Z,99.90
2022-08-24T02:24:32.825Z,99.90
2022-08-24T02:26:34.692Z,99.90
2022-08-24T02:28:37.894Z,99.90
2022-08-24T02:30:40.873Z,99.90
2022-08-24T02:32:43.375Z,99.90
2022-08-24T02:34:45.164Z,99.90
2022-08-24T02:36:47.007Z,99.90
2022-08-24T02:38:48.766Z,99.90
2022-08-24T02:40:50.620Z,99.90
2022-08-24T02:42:52.844Z,99.90
2022-08-24T02:44:55.272Z,99.90
2022-08-24T02:46:57.439Z,99.90
2022-08-24T02:49:11.080Z,99.90
2022-08-24T02:51:26.327Z,99.90
2022-08-24T02:53:30.922Z,99.90
2022-08-24T02:55:32.714Z,99.90
2022-08-24T02:57:34.555Z,99.90
2022-08-24T02:59:36.366Z,99.90
2022-08-24T03:01:38.270Z,99.90
2022-08-24T03:03:40.989Z,99.90
2022-08-24T03:05:42.968Z,99.90
2022-08-24T03:07:44.866Z,99.90
2022-08-24T03:09:46.644Z,99.90
2022-08-24T03:11:48.434Z,99.90
2022-08-24T03:13:50.536Z,99.90
2022-08-24T03:15:52.534Z,99.90
2022-08-24T03:17:54.365Z,99.90
2022-08-24T03:19:56.117Z,99.90
2022-08-24T03:21:57.925Z,99.90
2022-08-24T03:23:59.738Z,99.90
2022-08-24T03:26:02.008Z,99.90
2022-08-24T03:28:03.879Z,99.90
2022-08-24T03:30:15.124Z,99.90
2022-08-24T03:32:17.851Z,99.90
2022-08-24T03:34:20.902Z,99.90
2022-08-24T03:36:22.755Z,99.90
2022-08-24T03:38:25.240Z,99.90
2022-08-24T03:40:27.158Z,99.90
2022-08-24T03:42:29.046Z,99.90
2022-08-24T03:44:30.863Z,99.90
2022-08-24T03:46:36.754Z,99.90
2022-08-24T03:48:40.236Z,99.90
2022-08-24T03:50:46.178Z,99.90
2022-08-24T03:52:49.070Z,99.90
2022-08-24T03:54:50.874Z,99.90
2022-08-24T03:56:52.678Z,99.90
2022-08-24T03:58:55.179Z,99.90
2022-08-24T04:00:58.379Z,99.90
2022-08-24T04:03:00.272Z,99.90
2022-08-24T04:05:02.069Z,99.90
2022-08-24T04:07:04.425Z,99.90
2022-08-24T04:09:07.679Z,99.90
2022-08-24T04:11:16.753Z,99.90
2022-08-24T04:13:19.160Z,99.90
2022-08-24T04:15:21.110Z,99.90
2022-08-24T04:17:23.032Z,99.90
2022-08-24T04:19:25.029Z,99.90
2022-08-24T04:21:35.373Z,99.90
2022-08-24T04:23:47.044Z,99.90
2022-08-24T04:25:49.624Z,99.90
2022-08-24T04:27:51.421Z,99.90
2022-08-24T04:29:53.213Z,99.90
2022-08-24T04:31:55.111Z,99.90
2022-08-24T04:33:57.467Z,99.90
2022-08-24T04:35:59.342Z,99.90
2022-08-24T04:38:01.234Z,99.90
2022-08-24T04:40:04.504Z,99.90
2022-08-24T04:42:06.643Z,99.90
2022-08-24T04:44:08.455Z,99.90
2022-08-24T04:46:10.270Z,99.90
2022-08-24T04:48:13.458Z,99.90
2022-08-24T04:50:15.225Z,99.90
2022-08-24T04:52:18.208Z,99.90
2022-08-24T04:54:20.066Z,99.90
2022-08-24T04:56:24.035Z,99.90
2022-08-24T04:58:27.488Z,99.90
2022-08-24T05:00:29.273Z,99.90
2022-08-24T05:02:32.994Z,99.90
2022-08-24T05:04:38.023Z,99.90
2022-08-24T05:06:41.351Z,99.90
2022-08-24T05:08:43.938Z,99.90
2022-08-24T05:10:48.816Z,99.90
2022-08-24T05:12:50.722Z,99.90
2022-08-24T05:14:52.693Z,99.90
2022-08-24T05:16:54.595Z,99.90
2022-08-24T05:18:56.652Z,99.90
2022-08-24T05:20:58.653Z,99.90
2022-08-24T05:23:03.877Z,99.90
2022-08-24T05:25:06.625Z,99.90
2022-08-24T05:27:08.821Z,99.90
2022-08-24T05:29:10.861Z,99.90
2022-08-24T05:31:21.912Z,99.90
2022-08-24T05:33:23.756Z,99.90
2022-08-24T05:35:25.700Z,99.90
2022-08-24T05:37:27.480Z,99.90
2022-08-24T05:39:31.104Z,99.90
2022-08-24T05:41:32.983Z,99.90
2022-08-24T05:43:34.815Z,99.90
2022-08-24T05:45:36.588Z,99.90
2022-08-24T05:47:39.068Z,99.90
2022-08-24T05:49:41.734Z,99.90
2022-08-24T05:51:43.520Z,99.90
2022-08-24T05:53:45.526Z,99.90
2022-08-24T05:55:47.309Z,99.90
2022-08-24T05:57:50.421Z,99.90
2022-08-24T05:59:52.887Z,99.90
2022-08-24T06:01:54.721Z,99.90
2022-08-24T06:03:57.845Z,99.90
2022-08-24T06:06:01.905Z,99.90
2022-08-24T06:08:03.933Z,99.90
2022-08-24T06:10:26.287Z,99.90
2022-08-24T06:12:27.891Z,99.90
2022-08-24T06:14:29.683Z,99.90
2022-08-24T06:16:34.020Z,99.90
2022-08-24T06:18:36.329Z,99.90
2022-08-24T06:20:41.512Z,99.90
2022-08-24T06:22:44.437Z,99.90
2022-08-24T06:25:04.902Z,99.90
2022-08-24T06:27:22.381Z,99.90
2022-08-24T06:29:24.352Z,99.90
2022-08-24T06:31:27.641Z,99.90
2022-08-24T06:33:29.673Z,99.90
2022-08-24T06:35:31.802Z,99.90
2022-08-24T06:37:33.587Z,99.90
2022-08-24T06:39:36.001Z,99.90
2022-08-24T06:41:39.113Z,99.90
2022-08-24T06:43:41.057Z,99.90
2022-08-24T06:45:45.020Z,99.90
2022-08-24T06:47:46.903Z,99.90
2022-08-24T06:49:48.973Z,99.90
2022-08-24T06:51:51.422Z,99.90
2022-08-24T06:53:56.205Z,99.90
2022-08-24T06:55:59.212Z,99.90
2022-08-24T06:58:02.637Z,99.90
2022-08-24T07:00:05.867Z,99.90
2022-08-24T07:02:08.594Z,99.90
2022-08-24T07:04:10.626Z,99.90
2022-08-24T07:06:14.158Z,99.90
2022-08-24T07:08:15.943Z,99.90
2022-08-24T07:10:17.735Z,99.90
2022-08-24T07:12:24.924Z,99.90
2022-08-24T07:14:26.826Z,99.90
2022-08-24T07:16:28.865Z,99.90
2022-08-24T07:18:30.681Z,99.90
2022-08-24T07:20:32.531Z,99.90
2022-08-24T07:22:34.341Z,99.90
2022-08-24T07:24:36.258Z,99.90
2022-08-24T07:26:39.235Z,99.90
2022-08-24T07:28:41.117Z,99.90
2022-08-24T07:30:43.636Z,99.90
2022-08-24T07:32:45.463Z,99.90
2022-08-24T07:34:47.445Z,99.90
2022-08-24T07:36:50.689Z,99.90
2022-08-24T07:38:53.017Z,99.90
2022-08-24T07:41:20.343Z,99.90
2022-08-24T07:43:17.571Z,99.90
2022-08-24T07:45:20.655Z,99.90
2022-08-24T07:47:37.455Z,99.90
2022-08-24T07:49:41.578Z,99.90
2022-08-24T07:51:46.620Z,99.90
2022-08-24T07:53:53.961Z,99.90
2022-08-24T07:55:57.150Z,99.90
2022-08-24T07:57:59.544Z,99.90
2022-08-24T08:00:06.857Z,99.50
2022-08-24T08:02:08.911Z,99.40
2022-08-24T08:04:10.846Z,99.40
2022-08-24T08:06:16.169Z,99.10
2022-08-24T08:08:20.202Z,99.00
2022-08-24T08:10:23.428Z,98.60
2022-08-24T08:12:25.780Z,98.20
2022-08-24T08:14:27.831Z,97.50
2022-08-24T08:16:29.749Z,96.90
2022-08-24T08:18:32.048Z,96.40
2022-08-24T08:20:34.663Z,96.00
2022-08-24T08:22:55.087Z,95.90
2022-08-24T08:24:56.881Z,95.70
2022-08-24T08:26:59.367Z,95.40
2022-08-24T08:29:01.936Z,95.10
2022-08-24T08:31:05.763Z,94.80
2022-08-24T08:33:08.423Z,94.70
2022-08-24T08:35:10.840Z,93.90
2022-08-24T08:37:13.784Z,93.50
2022-08-24T08:39:18.161Z,92.80
2022-08-24T08:42:10.234Z,92.60
2022-08-24T08:44:41.823Z,92.10
2022-08-24T08:47:08.319Z,92.00
2022-08-24T08:49:47.731Z,91.10
2022-08-24T08:52:24.529Z,91.50
2022-08-24T08:54:45.904Z,90.50
2022-08-24T08:57:05.784Z,90.60
2022-08-24T08:59:45.580Z,91.00
2022-08-24T09:02:22.328Z,87.40
2022-08-24T09:04:56.714Z,89.20
2022-08-24T09:07:15.761Z,90.10
2022-08-24T09:09:37.779Z,89.60
2022-08-24T09:12:05.693Z,90.00
2022-08-24T09:14:10.031Z,88.80
2022-08-24T09:16:33.364Z,89.40
2022-08-24T09:18:44.386Z,89.70
2022-08-24T09:21:04.079Z,89.20
2022-08-24T09:23:26.185Z,89.10
2022-08-24T09:25:55.208Z,88.40
2022-08-24T09:28:28.458Z,88.90
2022-08-24T09:30:40.842Z,86.60
2022-08-24T09:33:00.878Z,86.40
2022-08-24T09:35:06.310Z,86.90
2022-08-24T09:37:30.851Z,86.50
2022-08-24T09:40:05.845Z,86.60
2022-08-24T09:42:16.942Z,87.00
2022-08-24T09:44:41.774Z,86.80
2022-08-24T09:47:04.834Z,86.80
2022-08-24T09:49:37.339Z,86.20
2022-08-24T09:52:00.323Z,84.90
2022-08-24T09:54:24.128Z,86.20
2022-08-24T09:56:37.877Z,85.10
2022-08-24T09:59:03.830Z,85.10
2022-08-24T10:01:30.392Z,83.60
2022-08-24T10:03:48.974Z,85.20
2022-08-24T10:05:59.863Z,83.80
2022-08-24T10:08:29.026Z,83.60
2022-08-24T10:10:53.523Z,83.30
2022-08-24T10:13:19.271Z,82.50
2022-08-24T10:15:28.383Z,83.60
2022-08-24T10:17:54.577Z,83.30
2022-08-24T10:20:05.970Z,82.00
2022-08-24T10:22:34.971Z,80.80
2022-08-24T10:24:39.840Z,80.80
2022-08-24T10:26:53.760Z,81.00
2022-08-24T10:29:05.815Z,81.20
2022-08-24T10:31:13.123Z,80.30
2022-08-24T10:33:20.652Z,79.10
2022-08-24T10:35:33.910Z,77.90
2022-08-24T10:38:22.411Z,77.90
2022-08-24T10:40:40.175Z,76.80
2022-08-24T10:43:09.329Z,78.80
2022-08-24T10:45:14.128Z,78.80
2022-08-24T10:47:29.218Z,79.00
2022-08-24T10:49:37.094Z,78.70
2022-08-24T10:52:09.067Z,79.80
2022-08-24T10:54:12.955Z,78.70
2022-08-24T10:56:21.577Z,80.10
2022-08-24T10:58:49.485Z,79.40
2022-08-24T11:00:51.758Z,77.70
2022-08-24T11:03:09.486Z,77.40
2022-08-24T11:05:28.011Z,74.10
2022-08-24T11:07:29.854Z,76.00
2022-08-24T11:09:48.913Z,76.10
2022-08-24T11:11:50.795Z,73.90
2022-08-24T11:14:00.326Z,75.00
2022-08-24T11:16:04.215Z,72.70
2022-08-24T11:18:06.444Z,73.20
2022-08-24T11:20:27.863Z,75.70
2022-08-24T11:23:02.292Z,76.00
2022-08-24T11:25:28.273Z,73.70
2022-08-24T11:27:40.918Z,74.40
2022-08-24T11:29:52.023Z,76.10
2022-08-24T11:31:53.959Z,75.80
2022-08-24T11:34:24.347Z,76.50
2022-08-24T11:36:29.119Z,76.40
2022-08-24T11:38:34.972Z,76.90
2022-08-24T11:40:41.949Z,77.00
2022-08-24T11:42:46.530Z,76.50
2022-08-24T11:45:14.212Z,76.50
2022-08-24T11:47:39.811Z,76.50
2022-08-24T11:49:48.123Z,75.10
2022-08-24T11:51:59.348Z,77.00
2022-08-24T11:54:48.807Z,77.40
2022-08-24T11:57:31.267Z,76.40
2022-08-24T11:59:50.675Z,76.40
2022-08-24T12:02:04.242Z,76.80
2022-08-24T12:04:39.377Z,76.10
2022-08-24T12:06:55.856Z,77.50
2022-08-24T12:09:43.122Z,77.60
2022-08-24T12:12:17.069Z,76.20
2022-08-24T12:14:29.664Z,76.50
2022-08-24T12:16:47.816Z,74.20
2022-08-24T12:19:02.324Z,74.50
2022-08-24T12:21:04.743Z,75.90
2022-08-24T12:23:34.828Z,76.30
2022-08-24T12:25:55.363Z,75.30
2022-08-24T12:27:58.092Z,75.10
2022-08-24T12:30:05.529Z,75.40
2022-08-24T12:32:21.792Z,75.40
2022-08-24T12:34:46.001Z,74.20
2022-08-24T12:37:16.369Z,76.00
2022-08-24T12:39:28.651Z,74.30
2022-08-24T12:41:35.370Z,74.70
2022-08-24T12:43:43.841Z,74.60
2022-08-24T12:45:46.263Z,75.50
2022-08-24T12:48:00.501Z,74.50
2022-08-24T12:50:23.239Z,75.40
2022-08-24T12:53:00.589Z,75.20
2022-08-24T12:55:19.150Z,74.80
2022-08-24T12:57:53.106Z,74.80
2022-08-24T13:00:02.507Z,74.20
2022-08-24T13:02:25.078Z,74.90
2022-08-24T13:04:51.181Z,74.10
2022-08-24T13:07:01.988Z,74.00
2022-08-24T13:09:29.622Z,73.80
2022-08-24T13:11:35.164Z,73.60
2022-08-24T13:14:18.384Z,73.50
2022-08-24T13:16:49.603Z,73.30
2022-08-24T13:19:11.484Z,73.70
2022-08-24T13:21:35.055Z,74.70
2022-08-24T13:23:37.039Z,73.10
2022-08-24T13:25:47.986Z,73.80
2022-08-24T13:28:04.511Z,73.40
2022-08-24T13:30:18.290Z,73.10
2022-08-24T13:32:39.133Z,73.40
2022-08-24T13:34:47.123Z,73.50
2022-08-24T13:37:11.156Z,73.60
2022-08-24T13:39:21.735Z,74.10
2022-08-24T13:41:27.168Z,73.50
2022-08-24T13:43:47.126Z,73.40
2022-08-24T13:45:59.865Z,71.80
2022-08-24T13:48:07.553Z,71.50
2022-08-24T13:50:45.802Z,70.90
2022-08-24T13:53:11.791Z,70.20
2022-08-24T13:55:35.081Z,70.00
2022-08-24T13:57:39.539Z,68.70
2022-08-24T13:59:48.085Z,67.90
2022-08-24T14:02:11.670Z,67.70
2022-08-24T14:04:25.339Z,66.10
2022-08-24T14:06:55.475Z,66.30
2022-08-24T14:09:11.495Z,65.40
2022-08-24T14:11:34.300Z,65.80
2022-08-24T14:14:05.990Z,64.50
2022-08-24T14:17:19.441Z,64.60
2022-08-24T14:19:36.640Z,63.00
2022-08-24T14:21:47.997Z,62.60
2022-08-24T14:23:56.217Z,62.70
2022-08-24T14:26:36.750Z,62.30
2022-08-24T14:28:43.707Z,61.30
2022-08-24T14:30:46.892Z,62.00
2022-08-24T14:33:00.973Z,63.10
2022-08-24T14:35:36.335Z,61.90
2022-08-24T14:38:11.551Z,61.00
2022-08-24T14:40:35.135Z,61.20
2022-08-24T14:43:07.899Z,61.90
2022-08-24T14:45:19.629Z,61.60
2022-08-24T14:47:40.510Z,61.30
2022-08-24T14:49:46.727Z,60.80
2022-08-24T14:52:04.239Z,60.00
2022-08-24T14:54:39.900Z,59.90
2022-08-24T14:57:22.508Z,60.10
2022-08-24T14:59:50.860Z,60.00
2022-08-24T15:02:45.212Z,59.00
2022-08-24T15:04:52.710Z,59.50
2022-08-24T15:07:22.949Z,59.80
2022-08-24T15:09:38.587Z,58.90
2022-08-24T15:11:41.648Z,59.40
2022-08-24T15:13:48.236Z,59.80
2022-08-24T15:15:53.193Z,59.70
2022-08-24T15:18:13.469Z,60.60
2022-08-24T15:20:46.615Z,59.20
2022-08-24T15:23:11.668Z,58.50
2022-08-24T15:25:34.837Z,58.90
2022-08-24T15:27:50.806Z,58.40
2022-08-24T15:29:56.650Z,58.60
2022-08-24T15:32:01.562Z,58.60
2022-08-24T15:34:04.646Z,58.30
2022-08-24T15:36:11.067Z,58.50
2022-08-24T15:38:21.262Z,58.10
2022-08-24T15:40:29.484Z,58.10
2022-08-24T15:42:35.641Z,58.10
2022-08-24T15:44:38.561Z,58.40
2022-08-24T15:46:49.265Z,58.60
2022-08-24T15:48:53.109Z,58.30
2022-08-24T15:50:55.955Z,57.60
2022-08-24T15:53:28.158Z,57.30
2022-08-24T15:55:31.913Z,57.20
2022-08-24T15:57:44.858Z,57.30
2022-08-24T15:59:50.683Z,57.00
2022-08-24T16:02:26.525Z,57.40
2022-08-24T16:04:47.891Z,57.90
2022-08-24T16:06:49.802Z,58.40
2022-08-24T16:09:24.144Z,58.60
2022-08-24T16:11:39.057Z,58.50
2022-08-24T16:13:43.063Z,58.50
2022-08-24T16:16:15.220Z,58.60
2022-08-24T16:18:20.247Z,58.60
2022-08-24T16:20:25.086Z,59.30
2022-08-24T16:22:36.588Z,59.50
2022-08-24T16:24:41.122Z,59.10
2022-08-24T16:26:45.723Z,59.70
2022-08-24T16:28:48.364Z,59.70
2022-08-24T16:30:58.117Z,59.70
2022-08-24T16:33:03.147Z,59.10
2022-08-24T16:35:07.606Z,59.40
2022-08-24T16:37:09.752Z,58.70
2022-08-24T16:39:12.187Z,58.00
2022-08-24T16:41:18.469Z,57.40
2022-08-24T16:43:20.268Z,57.60
2022-08-24T16:45:23.071Z,58.10
2022-08-24T16:47:26.806Z,58.30
2022-08-24T16:49:28.610Z,58.90
2022-08-24T16:51:30.375Z,59.70
2022-08-24T16:53:32.266Z,60.30
2022-08-24T16:55:34.196Z,61.00
2022-08-24T16:57:37.511Z,61.60
2022-08-24T16:59:41.756Z,61.90
2022-08-24T17:01:43.607Z,62.40
2022-08-24T17:03:45.721Z,62.90
2022-08-24T17:05:47.559Z,63.40
2022-08-24T17:07:50.899Z,63.80
2022-08-24T17:09:53.004Z,64.60
2022-08-24T17:11:54.806Z,64.90
2022-08-24T17:13:56.671Z,65.00
2022-08-24T17:15:59.762Z,65.40
2022-08-24T17:18:07.449Z,66.10
2022-08-24T17:20:11.169Z,66.50
2022-08-24T17:22:16.381Z,66.80
2022-08-24T17:24:20.809Z,67.40
2022-08-24T17:26:22.620Z,67.80
2022-08-24T17:28:24.625Z,68.10
2022-08-24T17:30:26.554Z,68.60
2022-08-24T17:32:32.332Z,69.10
2022-08-24T17:34:34.146Z,69.60
2022-08-24T17:36:36.514Z,70.10
2022-08-24T17:38:45.981Z,70.60
2022-08-24T17:40:48.948Z,71.10
2022-08-24T17:42:51.814Z,71.70
2022-08-24T17:44:54.876Z,72.00
2022-08-24T17:47:00.534Z,72.30
2022-08-24T17:49:02.957Z,72.80
2022-08-24T17:51:04.833Z,73.10
2022-08-24T17:53:06.939Z,73.50
2022-08-24T17:55:12.070Z,73.80
2022-08-24T17:57:14.911Z,74.30
2022-08-24T17:59:25.697Z,74.70
2022-08-24T18:01:28.418Z,75.10
2022-08-24T18:03:30.329Z,75.80
2022-08-24T18:05:33.839Z,76.60
2022-08-24T18:07:52.643Z,77.20
2022-08-24T18:10:00.275Z,77.60
2022-08-24T18:12:03.339Z,78.20
2022-08-24T18:14:05.232Z,78.50
2022-08-24T18:16:12.953Z,79.00
2022-08-24T18:18:14.793Z,79.40
2022-08-24T18:20:27.631Z,79.80
2022-08-24T18:22:29.801Z,80.40
2022-08-24T18:24:32.572Z,80.90
2022-08-24T18:26:34.658Z,81.10
2022-08-24T18:28:37.294Z,81.60
2022-08-24T18:30:41.426Z,82.70
2022-08-24T18:32:43.221Z,82.70
2022-08-24T18:34:45.125Z,83.20
2022-08-24T18:36:47.461Z,83.60
2022-08-24T18:38:49.307Z,84.20
2022-08-24T18:40:52.881Z,85.00
2022-08-24T18:42:57.037Z,85.70
2022-08-24T18:45:02.089Z,86.40
2022-08-24T18:47:03.942Z,86.80
2022-08-24T18:49:06.992Z,87.10
2022-08-24T18:51:10.372Z,87.60
2022-08-24T18:53:13.453Z,88.20
2022-08-24T18:55:16.852Z,88.50
2022-08-24T18:57:19.141Z,89.10
2022-08-24T18:59:22.112Z,90.20
2022-08-24T19:01:25.352Z,90.10
2022-08-24T19:03:27.257Z,90.40
2022-08-24T19:05:29.138Z,90.70
2022-08-24T19:07:34.187Z,90.90
2022-08-24T19:09:36.038Z,91.30
2022-08-24T19:11:38.325Z,91.50
2022-08-24T19:13:40.703Z,91.80
2022-08-24T19:15:46.583Z,92.00
2022-08-24T19:17:48.576Z,92.20
2022-08-24T19:19:50.376Z,92.70
2022-08-24T19:21:53.061Z,93.00
2022-08-24T19:23:56.382Z,93.30
2022-08-24T19:25:58.548Z,94.10
2022-08-24T19:28:00.334Z,94.60
2022-08-24T19:30:02.169Z,94.10
2022-08-24T19:32:04.519Z,94.50
2022-08-24T19:34:13.195Z,94.80
2022-08-24T19:36:15.364Z,95.10
2022-08-24T19:38:17.981Z,95.40
2022-08-24T19:40:21.862Z,95.70
2022-08-24T19:42:24.862Z,96.00
2022-08-24T19:44:51.868Z,96.40
2022-08-24T19:46:53.965Z,96.70
2022-08-24T19:48:56.172Z,97.10
2022-08-24T19:51:00.254Z,97.50
2022-08-24T19:53:02.377Z,97.80
2022-08-24T19:55:06.964Z,98.30
2022-08-24T19:57:36.273Z,98.60
2022-08-24T19:59:41.155Z,99.30
2022-08-24T20:01:43.008Z,99.40
2022-08-24T20:03:44.846Z,99.70
2022-08-24T20:05:46.801Z,99.90
2022-08-24T20:07:49.308Z,99.90
2022-08-24T20:09:51.094Z,99.90
2022-08-24T20:11:53.186Z,99.90
2022-08-24T20:13:55.060Z,99.90
2022-08-24T20:15:57.831Z,99.90
2022-08-24T20:17:59.912Z,99.90
2022-08-24T20:20:02.407Z,99.90
2022-08-24T20:22:13.135Z,99.90
2022-08-24T20:24:15.549Z,99.90
2022-08-24T20:26:17.451Z,99.90
2022-08-24T20:28:29.321Z,99.90
2022-08-24T20:30:32.059Z,99.90
2022-08-24T20:32:34.245Z,99.90
2022-08-24T20:34:36.098Z,99.90
2022-08-24T20:36:42.345Z,99.90
2022-08-24T20:38:44.149Z,99.90
2022-08-24T20:40:46.563Z,99.90
2022-08-24T20:42:48.491Z,99.90
2022-08-24T20:44:50.407Z,99.90
2022-08-24T20:46:52.353Z,99.90
2022-08-24T20:48:56.157Z,99.90
2022-08-24T20:50:59.064Z,99.90
2022-08-24T20:53:00.856Z,99.90
2022-08-24T20:55:05.133Z,99.90
2022-08-24T20:57:09.615Z,99.90
2022-08-24T20:59:12.849Z,99.90
2022-08-24T21:01:14.721Z,99.90
2022-08-24T21:03:18.745Z,99.90
2022-08-24T21:05:21.194Z,99.90
2022-08-24T21:07:23.094Z,99.90
2022-08-24T21:09:25.007Z,99.90
2022-08-24T21:11:26.987Z,99.90
2022-08-24T21:13:28.792Z,99.90
2022-08-24T21:15:30.870Z,99.90
2022-08-24T21:17:32.671Z,99.90
2022-08-24T21:19:34.513Z,99.90
2022-08-24T21:21:39.640Z,99.90
2022-08-24T21:23:44.425Z,99.90
2022-08-24T21:25:46.736Z,99.90
2022-08-24T21:27:50.836Z,99.90
2022-08-24T21:29:52.643Z,99.90
2022-08-24T21:32:12.825Z,99.90
2022-08-24T21:34:50.095Z,99.90
2022-08-24T21:36:52.585Z,99.90
2022-08-24T21:38:55.962Z,99.90
2022-08-24T21:40:58.752Z,99.90
2022-08-24T21:43:00.428Z,99.90
2022-08-24T21:45:02.866Z,99.90
2022-08-24T21:47:05.969Z,99.90
2022-08-24T21:49:08.903Z,99.90
2022-08-24T21:51:13.914Z,99.90
2022-08-24T21:53:16.667Z,99.90
2022-08-24T21:55:18.436Z,99.90
2022-08-24T21:57:20.226Z,99.90
2022-08-24T21:59:22.311Z,99.90
2022-08-24T22:01:24.409Z,99.90
2022-08-24T22:03:27.314Z,99.90
2022-08-24T22:05:33.574Z,99.90
2022-08-24T22:07:35.531Z,99.90
2022-08-24T22:09:37.310Z,99.90
2022-08-24T22:11:41.885Z,99.90
2022-08-24T22:13:44.269Z,99.90
2022-08-24T22:15:46.151Z,99.90
2022-08-24T22:17:51.886Z,99.90
2022-08-24T22:19:54.599Z,99.90
2022-08-24T22:21:56.388Z,99.90
2022-08-24T22:23:59.357Z,99.90
2022-08-24T22:26:01.147Z,99.90
2022-08-24T22:28:03.285Z,99.90
2022-08-24T22:30:05.964Z,99.90
2022-08-24T22:32:10.779Z,99.90
2022-08-24T22:34:16.617Z,99.90
2022-08-24T22:36:23.314Z,99.90
2022-08-24T22:38:25.058Z,99.90
2022-08-24T22:40:27.237Z,99.90
2022-08-24T22:42:29.277Z,99.90
2022-08-24T22:44:31.328Z,99.90
2022-08-24T22:46:35.027Z,99.90
2022-08-24T22:48:36.873Z,99.90
2022-08-24T22:50:43.155Z,99.90
2022-08-24T22:52:45.244Z,99.90
2022-08-24T22:54:47.150Z,99.90
2022-08-24T22:56:51.802Z,99.90
2022-08-24T22:58:55.886Z,99.90
2022-08-24T23:00:57.638Z,99.90
2022-08-24T23:02:59.440Z,99.90
2022-08-24T23:05:01.743Z,99.90
2022-08-24T23:07:05.194Z,99.90
2022-08-24T23:09:08.087Z,99.90
2022-08-24T23:11:10.044Z,99.90
2022-08-24T23:13:11.803Z,99.90
2022-08-24T23:15:13.619Z,99.90
2022-08-24T23:17:15.413Z,99.90
2022-08-24T23:19:39.588Z,99.90
2022-08-24T23:21:41.934Z,99.90
2022-08-24T23:23:44.103Z,99.90
2022-08-24T23:25:47.225Z,99.90
2022-08-24T23:27:50.199Z,99.90
2022-08-24T23:29:52.842Z,99.90
2022-08-24T23:31:54.693Z,99.90
2022-08-24T23:33:58.390Z,99.90
2022-08-24T23:36:09.919Z,99.90
2022-08-24T23:38:11.677Z,99.90
2022-08-24T23:40:13.521Z,99.90
2022-08-24T23:42:16.052Z,99.90
2022-08-24T23:44:21.707Z,99.90
2022-08-24T23:46:23.832Z,99.90
2022-08-24T23:48:25.680Z,99.90
2022-08-24T23:50:27.741Z,99.90
2022-08-24T23:52:30.727Z,99.90
2022-08-24T23:54:32.564Z,99.90
2022-08-24T23:56:37.563Z,99.90
2022-08-24T23:58:41.192Z,99.90
